createdAt,value
2023-05-12T00:00:21.261Z,0.00
2023-05-12T00:01:21.078Z,0.00
2023-05-12T00:02:21.177Z,0.00
2023-05-12T00:03:21.139Z,0.00
2023-05-12T00:04:21.057Z,0.00
2023-05-12T00:05:20.995Z,0.00
2023-05-12T00:06:21.010Z,0.00
2023-05-12T00:07:21.035Z,0.00
2023-05-12T00:08:20.974Z,0.00
2023-05-12T00:09:20.956Z,0.00
2023-05-12T00:10:21.247Z,0.00
2023-05-12T00:11:20.936Z,0.00
2023-05-12T00:12:20.943Z,0.00
2023-05-12T00:13:20.913Z,0.00
2023-05-12T00:14:20.880Z,0.00
2023-05-12T00:15:20.876Z,0.00
2023-05-12T00:16:20.873Z,0.00
2023-05-12T00:17:20.891Z,0.00
2023-05-12T00:18:20.893Z,0.00
2023-05-12T00:19:21.046Z,0.00
2023-05-12T00:20:21.056Z,0.00
2023-05-12T00:21:20.805Z,0.00
2023-05-12T00:22:20.773Z,0.00
2023-05-12T00:23:20.788Z,0.00
2023-05-12T00:24:20.746Z,0.00
2023-05-12T00:25:20.753Z,0.00
2023-05-12T00:26:20.718Z,0.00
2023-05-12T00:27:20.733Z,0.00
2023-05-12T00:28:20.706Z,0.00
2023-05-12T00:29:20.679Z,0.00
2023-05-12T00:30:20.837Z,0.00
2023-05-12T00:31:20.700Z,0.00
2023-05-12T00:32:20.719Z,0.00
2023-05-12T00:33:20.668Z,0.00
2023-05-12T00:34:20.618Z,0.00
2023-05-12T00:35:20.622Z,0.00
2023-05-12T00:36:20.624Z,0.00
2023-05-12T00:37:20.596Z,0.00
2023-05-12T00:38:20.586Z,0.00
2023-05-12T00:39:20.578Z,0.00
2023-05-12T00:40:20.733Z,0.00
2023-05-12T00:41:20.542Z,0.00
2023-05-12T00:42:20.534Z,0.00
2023-05-12T00:43:20.511Z,0.00
2023-05-12T00:44:20.504Z,0.00
2023-05-12T00:45:20.542Z,0.00
2023-05-12T00:46:20.499Z,0.00
2023-05-12T00:47:20.460Z,0.00
2023-05-12T00:48:20.435Z,0.00
2023-05-12T00:49:20.431Z,0.00
2023-05-12T00:50:20.727Z,0.00
2023-05-12T00:51:20.406Z,0.00
2023-05-12T00:52:20.414Z,0.00
2023-05-12T00:53:20.401Z,0.00
2023-05-12T00:54:20.371Z,0.00
2023-05-12T00:55:20.367Z,0.00
2023-05-12T00:56:20.405Z,0.00
2023-05-12T00:57:20.371Z,0.00
2023-05-12T00:58:20.355Z,0.00
2023-05-12T00:59:20.314Z,0.00
2023-05-12T01:00:20.583Z,0.00
2023-05-12T01:01:20.302Z,0.00
2023-05-12T01:02:20.401Z,0.00
2023-05-12T01:03:20.347Z,0.00
2023-05-12T01:04:20.258Z,0.00
2023-05-12T01:05:20.239Z,0.00
2023-05-12T01:06:20.229Z,0.00
2023-05-12T01:07:20.210Z,0.00
2023-05-12T01:08:20.215Z,0.00
2023-05-12T01:09:20.233Z,0.00
2023-05-12T01:10:20.565Z,0.00
2023-05-12T01:11:20.153Z,0.00
2023-05-12T01:12:20.149Z,0.00
2023-05-12T01:13:20.123Z,0.00
2023-05-12T01:14:20.145Z,0.00
2023-05-12T01:15:20.084Z,0.00
2023-05-12T01:16:20.081Z,0.00
2023-05-12T01:17:20.128Z,0.00
2023-05-12T01:18:20.154Z,0.00
2023-05-12T01:19:20.086Z,0.00
2023-05-12T01:20:20.282Z,0.00
2023-05-12T01:21:20.038Z,0.00
2023-05-12T01:22:20.032Z,0.00
2023-05-12T01:23:20.015Z,0.00
2023-05-12T01:24:19.993Z,0.00
2023-05-12T01:25:19.996Z,0.00
2023-05-12T01:26:19.975Z,0.00
2023-05-12T01:27:19.932Z,0.00
2023-05-12T01:28:19.924Z,0.00
2023-05-12T01:29:19.923Z,0.00
2023-05-12T01:30:20.212Z,0.00
2023-05-12T01:31:21.279Z,0.00
2023-05-12T01:32:19.907Z,0.00
2023-05-12T01:33:19.871Z,0.00
2023-05-12T01:34:19.878Z,0.00
2023-05-12T01:35:19.884Z,0.00
2023-05-12T01:36:19.844Z,0.00
2023-05-12T01:37:19.834Z,0.00
2023-05-12T01:38:19.809Z,0.00
2023-05-12T01:39:19.793Z,0.00
2023-05-12T01:40:19.923Z,0.00
2023-05-12T01:41:19.793Z,0.00
2023-05-12T01:42:19.751Z,0.00
2023-05-12T01:43:21.980Z,0.00
2023-05-12T01:44:19.734Z,0.00
2023-05-12T01:45:19.750Z,0.00
2023-05-12T01:46:19.717Z,0.00
2023-05-12T01:47:19.724Z,0.00
2023-05-12T01:48:19.676Z,0.00
2023-05-12T01:49:19.644Z,0.00
2023-05-12T01:50:19.757Z,0.00
2023-05-12T01:51:19.639Z,0.00
2023-05-12T01:52:19.622Z,0.00
2023-05-12T01:53:19.610Z,0.00
2023-05-12T01:54:19.599Z,0.00
2023-05-12T01:55:19.591Z,0.00
2023-05-12T01:56:19.602Z,0.00
2023-05-12T01:57:19.549Z,0.00
2023-05-12T01:58:19.545Z,0.00
2023-05-12T01:59:19.561Z,0.00
2023-05-12T02:00:19.749Z,0.00
2023-05-12T02:01:19.523Z,0.00
2023-05-12T02:02:19.515Z,0.00
2023-05-12T02:03:19.596Z,0.00
2023-05-12T02:04:19.452Z,0.00
2023-05-12T02:05:19.460Z,0.00
2023-05-12T02:06:19.457Z,0.00
2023-05-12T02:07:19.433Z,0.00
2023-05-12T02:08:19.418Z,0.00
2023-05-12T02:09:19.400Z,0.00
2023-05-12T02:10:19.649Z,0.00
2023-05-12T02:11:19.376Z,0.00
2023-05-12T02:12:19.352Z,0.00
2023-05-12T02:13:19.379Z,0.00
2023-05-12T02:14:19.345Z,0.00
2023-05-12T02:15:19.331Z,0.00
2023-05-12T02:16:19.352Z,0.00
2023-05-12T02:17:19.287Z,0.00
2023-05-12T02:18:19.294Z,0.00
2023-05-12T02:19:19.293Z,0.00
2023-05-12T02:20:19.522Z,0.00
2023-05-12T02:21:19.230Z,0.00
2023-05-12T02:22:19.236Z,0.00
2023-05-12T02:23:19.226Z,0.00
2023-05-12T02:24:19.246Z,0.00
2023-05-12T02:25:19.200Z,0.00
2023-05-12T02:26:19.167Z,0.00
2023-05-12T02:27:19.164Z,0.00
2023-05-12T02:28:19.162Z,0.00
2023-05-12T02:29:19.143Z,0.00
2023-05-12T02:30:19.365Z,0.00
2023-05-12T02:31:19.134Z,0.00
2023-05-12T02:32:19.180Z,0.00
2023-05-12T02:33:19.096Z,0.00
2023-05-12T02:34:19.091Z,0.00
2023-05-12T02:35:19.089Z,0.00
2023-05-12T02:36:19.044Z,4.00
2023-05-12T02:37:19.040Z,4.00
2023-05-12T02:38:19.029Z,0.00
2023-05-12T02:39:19.006Z,0.00
2023-05-12T02:40:19.217Z,4.00
2023-05-12T02:41:18.972Z,4.00
2023-05-12T02:42:19.012Z,0.00
2023-05-12T02:43:18.958Z,4.00
2023-05-12T02:44:19.124Z,0.00
2023-05-12T02:45:18.922Z,4.00
2023-05-12T02:46:19.107Z,4.00
2023-05-12T02:47:18.943Z,8.00
2023-05-12T02:48:18.888Z,8.00
2023-05-12T02:49:18.879Z,8.00
2023-05-12T02:50:19.162Z,8.00
2023-05-12T02:51:18.863Z,8.00
2023-05-12T02:52:18.867Z,12.00
2023-05-12T02:53:18.821Z,12.00
2023-05-12T02:54:18.825Z,12.00
2023-05-12T02:55:18.809Z,16.00
2023-05-12T02:56:18.798Z,20.00
2023-05-12T02:57:18.810Z,20.00
2023-05-12T02:58:18.756Z,20.00
2023-05-12T02:59:18.742Z,28.00
2023-05-12T03:00:18.849Z,28.00
2023-05-12T03:01:18.773Z,32.00
2023-05-12T03:02:18.796Z,40.00
2023-05-12T03:03:25.954Z,40.00
2023-05-12T03:04:18.674Z,48.00
2023-05-12T03:05:18.659Z,52.00
2023-05-12T03:06:18.665Z,60.00
2023-05-12T03:07:18.703Z,64.00
2023-05-12T03:08:18.626Z,72.00
2023-05-12T03:09:18.654Z,80.00
2023-05-12T03:10:19.064Z,88.00
2023-05-12T03:11:18.594Z,100.00
2023-05-12T03:12:18.616Z,104.00
2023-05-12T03:13:18.568Z,120.00
2023-05-12T03:14:18.555Z,128.00
2023-05-12T03:15:18.549Z,140.00
2023-05-12T03:16:19.741Z,156.00
2023-05-12T03:17:18.615Z,164.00
2023-05-12T03:18:26.385Z,180.00
2023-05-12T03:19:18.497Z,192.00
2023-05-12T03:20:18.676Z,208.00
2023-05-12T03:21:18.466Z,224.00
2023-05-12T03:22:18.454Z,240.00
2023-05-12T03:23:18.442Z,256.00
2023-05-12T03:24:18.450Z,272.00
2023-05-12T03:25:18.415Z,296.00
2023-05-12T03:26:18.416Z,312.00
2023-05-12T03:27:18.365Z,332.00
2023-05-12T03:28:18.403Z,352.00
2023-05-12T03:29:18.340Z,372.00
2023-05-12T03:30:18.551Z,392.00
2023-05-12T03:31:18.408Z,412.00
2023-05-12T03:32:18.381Z,436.00
2023-05-12T03:33:18.305Z,456.00
2023-05-12T03:34:18.302Z,480.00
2023-05-12T03:35:18.277Z,504.00
2023-05-12T03:36:18.300Z,524.00
2023-05-12T03:37:18.249Z,552.00
2023-05-12T03:38:18.252Z,580.00
2023-05-12T03:39:18.232Z,608.00
2023-05-12T03:40:18.466Z,640.00
2023-05-12T03:41:18.234Z,676.00
2023-05-12T03:42:18.179Z,708.00
2023-05-12T03:43:18.174Z,740.00
2023-05-12T03:44:18.183Z,768.00
2023-05-12T03:45:18.151Z,796.00
2023-05-12T03:46:18.184Z,820.00
2023-05-12T03:47:18.161Z,852.00
2023-05-12T03:48:18.184Z,872.00
2023-05-12T03:49:18.098Z,888.00
2023-05-12T03:50:18.236Z,908.00
2023-05-12T03:51:18.066Z,928.00
2023-05-12T03:52:18.061Z,952.00
2023-05-12T03:53:18.029Z,976.00
2023-05-12T03:54:18.048Z,1000.00
2023-05-12T03:55:18.007Z,1024.00
2023-05-12T03:56:18.020Z,1048.00
2023-05-12T03:57:17.993Z,1068.00
2023-05-12T03:58:17.974Z,1088.00
2023-05-12T03:59:17.964Z,1104.00
2023-05-12T04:00:18.225Z,1120.00
2023-05-12T04:01:17.948Z,1132.00
2023-05-12T04:02:17.984Z,1152.00
2023-05-12T04:03:18.044Z,1176.00
2023-05-12T04:04:17.906Z,1200.00
2023-05-12T04:05:17.915Z,1224.00
2023-05-12T04:06:17.947Z,1244.00
2023-05-12T04:07:17.857Z,1264.00
2023-05-12T04:08:17.853Z,1284.00
2023-05-12T04:09:17.831Z,1312.00
2023-05-12T04:10:17.877Z,1376.00
2023-05-12T04:11:17.801Z,1436.00
2023-05-12T04:12:17.814Z,1480.00
2023-05-12T04:13:17.786Z,1520.00
2023-05-12T04:14:17.753Z,1556.00
2023-05-12T04:15:17.735Z,1608.00
2023-05-12T04:16:17.809Z,1672.00
2023-05-12T04:17:17.756Z,1712.00
2023-05-12T04:18:17.744Z,1760.00
2023-05-12T04:19:17.694Z,1776.00
2023-05-12T04:20:17.835Z,1828.00
2023-05-12T04:21:17.659Z,1892.00
2023-05-12T04:22:17.647Z,1936.00
2023-05-12T04:23:17.676Z,1976.00
2023-05-12T04:24:17.688Z,1984.00
2023-05-12T04:25:17.642Z,1992.00
2023-05-12T04:26:17.624Z,2008.00
2023-05-12T04:27:17.581Z,2008.00
2023-05-12T04:28:17.645Z,1948.00
2023-05-12T04:29:17.567Z,1932.00
2023-05-12T04:30:17.644Z,1964.00
2023-05-12T04:31:17.589Z,1988.00
2023-05-12T04:32:17.587Z,2024.00
2023-05-12T04:33:17.530Z,2072.00
2023-05-12T04:34:17.531Z,2076.00
2023-05-12T04:35:17.483Z,2108.00
2023-05-12T04:36:17.487Z,2248.00
2023-05-12T04:37:17.578Z,2332.00
2023-05-12T04:38:17.455Z,2320.00
2023-05-12T04:39:17.448Z,2404.00
2023-05-12T04:40:17.482Z,2456.00
2023-05-12T04:41:17.424Z,2472.00
2023-05-12T04:42:17.404Z,2524.00
2023-05-12T04:44:17.359Z,2648.00
2023-05-12T04:45:17.465Z,2660.00
2023-05-12T04:46:17.405Z,2676.00
2023-05-12T04:47:17.370Z,2688.00
2023-05-12T04:48:17.316Z,2672.00
2023-05-12T04:49:17.335Z,2684.00
2023-05-12T04:50:17.303Z,2704.00
2023-05-12T04:51:17.270Z,2760.00
2023-05-12T04:52:17.287Z,2812.00
2023-05-12T04:53:17.268Z,2848.00
2023-05-12T04:54:17.326Z,2856.00
2023-05-12T04:55:17.342Z,2916.00
2023-05-12T04:56:17.246Z,3000.00
2023-05-12T04:57:17.216Z,3084.00
2023-05-12T04:58:17.178Z,3136.00
2023-05-12T04:59:17.188Z,3204.00
2023-05-12T05:00:17.158Z,3244.00
2023-05-12T05:01:17.175Z,3252.00
2023-05-12T05:02:17.154Z,3284.00
2023-05-12T05:03:17.256Z,3316.00
2023-05-12T05:04:17.136Z,3336.00
2023-05-12T05:05:17.097Z,3344.00
2023-05-12T05:06:17.075Z,3336.00
2023-05-12T05:07:17.073Z,3332.00
2023-05-12T05:08:17.093Z,3304.00
2023-05-12T05:09:17.049Z,3272.00
2023-05-12T05:10:17.039Z,3232.00
2023-05-12T05:11:17.032Z,3204.00
2023-05-12T05:12:17.001Z,3176.00
2023-05-12T05:13:17.005Z,3160.00
2023-05-12T05:14:17.005Z,3148.00
2023-05-12T05:15:16.959Z,3144.00
2023-05-12T05:16:16.973Z,3152.00
2023-05-12T05:17:16.953Z,3144.00
2023-05-12T05:18:16.937Z,3140.00
2023-05-12T05:19:22.750Z,3136.00
2023-05-12T05:20:18.021Z,3128.00
2023-05-12T05:21:16.906Z,3120.00
2023-05-12T05:22:16.911Z,3116.00
2023-05-12T05:23:16.864Z,3116.00
2023-05-12T05:24:16.874Z,3128.00
2023-05-12T05:25:16.999Z,3132.00
2023-05-12T05:26:16.828Z,3128.00
2023-05-12T05:27:16.939Z,3140.00
2023-05-12T05:28:16.791Z,3148.00
2023-05-12T05:29:16.783Z,3160.00
2023-05-12T05:30:16.803Z,3164.00
2023-05-12T05:31:16.853Z,3176.00
2023-05-12T05:32:16.750Z,3188.00
2023-05-12T05:33:16.857Z,3196.00
2023-05-12T05:34:16.778Z,3204.00
2023-05-12T05:35:16.708Z,3220.00
2023-05-12T05:36:16.718Z,3232.00
2023-05-12T05:37:16.690Z,3236.00
2023-05-12T05:38:16.660Z,3248.00
2023-05-12T05:39:16.658Z,3256.00
2023-05-12T05:40:16.650Z,3272.00
2023-05-12T05:41:16.649Z,3288.00
2023-05-12T05:42:16.617Z,3300.00
2023-05-12T05:43:16.602Z,3308.00
2023-05-12T05:44:16.580Z,3320.00
2023-05-12T05:45:16.601Z,3328.00
2023-05-12T05:46:16.639Z,3340.00
2023-05-12T05:47:16.569Z,3360.00
2023-05-12T05:48:16.567Z,3368.00
2023-05-12T05:49:16.535Z,3384.00
2023-05-12T05:50:16.514Z,3396.00
2023-05-12T05:51:16.503Z,3408.00
2023-05-12T05:52:16.498Z,3424.00
2023-05-12T05:53:16.489Z,3432.00
2023-05-12T05:54:16.474Z,3448.00
2023-05-12T05:55:16.462Z,3452.00
2023-05-12T05:56:16.440Z,3468.00
2023-05-12T05:57:16.462Z,3484.00
2023-05-12T05:58:16.402Z,3492.00
2023-05-12T05:59:16.400Z,3508.00
2023-05-12T06:00:16.376Z,3516.00
2023-05-12T06:01:16.373Z,3524.00
2023-05-12T06:02:16.438Z,3536.00
2023-05-12T06:03:16.443Z,3556.00
2023-05-12T06:04:16.373Z,3564.00
2023-05-12T06:05:17.360Z,3580.00
2023-05-12T06:06:16.343Z,3588.00
2023-05-12T06:07:16.285Z,3596.00
2023-05-12T06:08:16.362Z,3616.00
2023-05-12T06:09:16.311Z,3624.00
2023-05-12T06:10:16.296Z,3636.00
2023-05-12T06:11:17.857Z,3652.00
2023-05-12T06:12:16.244Z,3664.00
2023-05-12T06:13:16.201Z,3656.00
2023-05-12T06:14:16.240Z,3680.00
2023-05-12T06:15:16.197Z,3692.00
2023-05-12T06:16:16.179Z,3700.00
2023-05-12T06:17:16.150Z,3704.00
2023-05-12T06:18:16.156Z,3716.00
2023-05-12T06:19:16.164Z,3728.00
2023-05-12T06:20:16.136Z,3732.00
2023-05-12T06:21:16.138Z,3744.00
2023-05-12T06:22:16.110Z,3760.00
2023-05-12T06:23:16.149Z,3768.00
2023-05-12T06:24:16.069Z,3772.00
2023-05-12T06:25:16.075Z,3780.00
2023-05-12T06:26:16.077Z,3792.00
2023-05-12T06:27:16.026Z,3808.00
2023-05-12T06:28:16.020Z,3808.00
2023-05-12T06:29:16.244Z,3812.00
2023-05-12T06:30:16.461Z,3804.00
2023-05-12T06:31:15.990Z,3832.00
2023-05-12T06:32:16.154Z,3832.00
2023-05-12T06:33:15.946Z,3832.00
2023-05-12T06:34:15.948Z,3852.00
2023-05-12T06:35:15.960Z,3856.00
2023-05-12T06:36:16.049Z,3884.00
2023-05-12T06:37:15.926Z,3892.00
2023-05-12T06:38:15.921Z,3896.00
2023-05-12T06:39:15.895Z,3900.00
2023-05-12T06:40:15.892Z,3912.00
2023-05-12T06:41:15.905Z,3920.00
2023-05-12T06:42:15.831Z,3928.00
2023-05-12T06:43:15.862Z,3944.00
2023-05-12T06:44:15.828Z,3956.00
2023-05-12T06:45:15.840Z,3964.00
2023-05-12T06:46:15.907Z,3960.00
2023-05-12T06:47:15.849Z,3960.00
2023-05-12T06:48:15.788Z,3972.00
2023-05-12T06:49:15.789Z,3984.00
2023-05-12T06:50:15.756Z,3988.00
2023-05-12T06:51:15.716Z,3992.00
2023-05-12T06:52:15.723Z,3996.00
2023-05-12T06:53:15.690Z,4004.00
2023-05-12T06:54:15.733Z,4016.00
2023-05-12T06:55:15.681Z,4020.00
2023-05-12T06:56:15.650Z,4028.00
2023-05-12T06:57:15.677Z,4024.00
2023-05-12T06:58:15.634Z,4024.00
2023-05-12T06:59:15.641Z,4032.00
2023-05-12T07:00:15.598Z,4032.00
2023-05-12T07:01:15.631Z,4044.00
2023-05-12T07:02:15.614Z,4056.00
2023-05-12T07:03:15.717Z,4064.00
2023-05-12T07:04:15.675Z,4068.00
2023-05-12T07:05:15.600Z,4068.00
2023-05-12T07:06:15.531Z,4076.00
2023-05-12T07:07:15.539Z,4080.00
2023-05-12T07:08:15.533Z,4088.00
2023-05-12T07:09:15.488Z,4092.00
2023-05-12T07:10:15.459Z,4088.00
2023-05-12T07:11:15.475Z,4096.00
2023-05-12T07:12:15.430Z,4100.00
2023-05-12T07:13:15.471Z,4108.00
2023-05-12T07:14:15.436Z,4112.00
2023-05-12T07:15:15.420Z,4116.00
2023-05-12T07:16:15.482Z,4120.00
2023-05-12T07:17:15.393Z,4124.00
2023-05-12T07:18:15.395Z,4128.00
2023-05-12T07:19:15.472Z,4140.00
2023-05-12T07:20:15.343Z,4140.00
2023-05-12T07:21:15.330Z,4144.00
2023-05-12T07:22:15.332Z,4148.00
2023-05-12T07:23:16.910Z,4148.00
2023-05-12T07:24:15.324Z,4152.00
2023-05-12T07:25:15.348Z,4160.00
2023-05-12T07:26:15.266Z,4160.00
2023-05-12T07:27:15.260Z,4160.00
2023-05-12T07:28:15.256Z,4172.00
2023-05-12T07:29:15.260Z,4168.00
2023-05-12T07:30:15.210Z,4168.00
2023-05-12T07:31:15.246Z,4168.00
2023-05-12T07:32:15.174Z,4176.00
2023-05-12T07:33:15.193Z,4172.00
2023-05-12T07:34:15.183Z,4184.00
2023-05-12T07:35:15.163Z,4196.00
2023-05-12T07:36:15.133Z,4200.00
2023-05-12T07:37:15.122Z,4200.00
2023-05-12T07:38:15.105Z,4200.00
2023-05-12T07:39:15.101Z,4208.00
2023-05-12T07:40:15.148Z,4212.00
2023-05-12T07:41:15.086Z,4224.00
2023-05-12T07:42:15.070Z,4228.00
2023-05-12T07:43:15.052Z,4232.00
2023-05-12T07:44:15.043Z,4236.00
2023-05-12T07:45:15.174Z,4240.00
2023-05-12T07:46:15.014Z,4248.00
2023-05-12T07:47:15.115Z,4256.00
2023-05-12T07:48:15.018Z,4260.00
2023-05-12T07:49:14.964Z,4260.00
2023-05-12T07:50:14.985Z,4268.00
2023-05-12T07:51:14.980Z,4268.00
2023-05-12T07:52:14.934Z,4268.00
2023-05-12T07:53:14.917Z,4280.00
2023-05-12T07:54:14.943Z,4280.00
2023-05-12T07:55:15.083Z,4276.00
2023-05-12T07:56:14.887Z,4276.00
2023-05-12T07:57:14.895Z,4280.00
2023-05-12T07:58:14.853Z,4288.00
2023-05-12T07:59:14.836Z,4292.00
2023-05-12T08:00:14.814Z,4300.00
2023-05-12T08:01:14.846Z,4300.00
2023-05-12T08:02:14.831Z,4304.00
2023-05-12T08:03:14.846Z,4296.00
2023-05-12T08:04:14.969Z,4308.00
2023-05-12T08:05:14.897Z,4308.00
2023-05-12T08:06:14.777Z,4308.00
2023-05-12T08:07:14.851Z,4324.00
2023-05-12T08:08:14.724Z,4332.00
2023-05-12T08:09:14.704Z,4336.00
2023-05-12T08:10:14.748Z,4348.00
2023-05-12T08:11:14.717Z,4352.00
2023-05-12T08:12:14.684Z,4356.00
2023-05-12T08:13:14.652Z,4360.00
2023-05-12T08:14:14.633Z,4368.00
2023-05-12T08:15:14.757Z,4380.00
2023-05-12T08:16:14.766Z,4388.00
2023-05-12T08:17:14.810Z,4396.00
2023-05-12T08:18:14.668Z,4404.00
2023-05-12T08:19:14.695Z,4412.00
2023-05-12T08:20:14.572Z,4416.00
2023-05-12T08:21:14.576Z,4428.00
2023-05-12T08:22:14.578Z,4436.00
2023-05-12T08:23:14.520Z,4436.00
2023-05-12T08:24:14.555Z,4444.00
2023-05-12T08:25:14.566Z,4452.00
2023-05-12T08:26:14.491Z,4456.00
2023-05-12T08:27:14.519Z,4460.00
2023-05-12T08:28:14.470Z,4472.00
2023-05-12T08:29:14.440Z,4472.00
2023-05-12T08:30:14.468Z,4476.00
2023-05-12T08:31:14.485Z,4488.00
2023-05-12T08:32:14.415Z,4492.00
2023-05-12T08:33:14.451Z,4496.00
2023-05-12T08:34:14.399Z,4512.00
2023-05-12T08:35:14.477Z,4524.00
2023-05-12T08:36:14.370Z,4520.00
2023-05-12T08:37:14.356Z,4512.00
2023-05-12T08:38:14.360Z,4516.00
2023-05-12T08:39:14.322Z,4532.00
2023-05-12T08:40:14.315Z,4544.00
2023-05-12T08:41:14.309Z,4552.00
2023-05-12T08:42:14.273Z,4548.00
2023-05-12T08:43:14.301Z,4560.00
2023-05-12T08:44:14.326Z,4568.00
2023-05-12T08:45:14.260Z,4568.00
2023-05-12T08:46:14.350Z,4588.00
2023-05-12T08:47:14.241Z,4584.00
2023-05-12T08:48:14.233Z,4588.00
2023-05-12T08:49:14.230Z,4592.00
2023-05-12T08:50:14.174Z,4604.00
2023-05-12T08:51:14.179Z,4624.00
2023-05-12T08:52:14.156Z,4632.00
2023-05-12T08:53:14.137Z,4620.00
2023-05-12T08:54:14.185Z,4624.00
2023-05-12T08:55:14.218Z,4632.00
2023-05-12T08:57:15.130Z,4628.00
2023-05-12T08:58:14.092Z,4640.00
2023-05-12T08:59:14.079Z,4652.00
2023-05-12T09:00:14.068Z,4648.00
2023-05-12T09:01:14.103Z,4644.00
2023-05-12T09:02:14.213Z,4648.00
2023-05-12T09:03:14.019Z,4652.00
2023-05-12T09:04:14.087Z,4660.00
2023-05-12T09:05:14.009Z,4660.00
2023-05-12T09:06:13.999Z,4660.00
2023-05-12T09:07:13.980Z,4664.00
2023-05-12T09:08:13.935Z,4668.00
2023-05-12T09:09:13.930Z,4672.00
2023-05-12T09:10:25.953Z,4688.00
2023-05-12T09:11:14.917Z,4684.00
2023-05-12T09:12:14.959Z,4708.00
2023-05-12T09:13:13.887Z,4692.00
2023-05-12T09:14:13.882Z,4684.00
2023-05-12T09:15:13.881Z,4680.00
2023-05-12T09:16:13.876Z,4672.00
2023-05-12T09:17:13.832Z,4688.00
2023-05-12T09:18:13.847Z,4708.00
2023-05-12T09:19:20.875Z,4712.00
2023-05-12T09:20:30.146Z,4708.00
2023-05-12T09:21:14.801Z,4708.00
2023-05-12T09:22:13.767Z,4724.00
2023-05-12T09:23:13.799Z,4724.00
2023-05-12T09:24:13.752Z,4728.00
2023-05-12T09:25:14.837Z,4720.00
2023-05-12T09:26:13.724Z,4724.00
2023-05-12T09:27:13.719Z,4732.00
2023-05-12T09:28:13.708Z,4736.00
2023-05-12T09:29:18.273Z,4752.00
2023-05-12T09:30:14.666Z,4752.00
2023-05-12T09:31:14.769Z,4732.00
2023-05-12T09:32:13.666Z,4752.00
2023-05-12T09:33:13.710Z,4748.00
2023-05-12T09:34:13.619Z,4752.00
2023-05-12T09:35:13.604Z,4744.00
2023-05-12T09:36:13.615Z,4752.00
2023-05-12T09:37:15.344Z,4768.00
2023-05-12T09:38:13.580Z,4772.00
2023-05-12T09:39:13.539Z,4772.00
2023-05-12T09:40:13.541Z,4784.00
2023-05-12T09:41:13.539Z,4800.00
2023-05-12T09:42:13.567Z,4820.00
2023-05-12T09:43:15.492Z,4828.00
2023-05-12T09:44:13.478Z,4828.00
2023-05-12T09:45:13.495Z,4824.00
2023-05-12T09:46:13.500Z,4800.00
2023-05-12T09:47:13.424Z,4808.00
2023-05-12T09:48:13.439Z,4796.00
2023-05-12T09:49:13.418Z,4808.00
2023-05-12T09:50:13.398Z,4796.00
2023-05-12T09:51:13.378Z,4804.00
2023-05-12T09:52:13.383Z,4796.00
2023-05-12T09:53:13.376Z,4800.00
2023-05-12T09:54:13.377Z,4816.00
2023-05-12T09:55:13.350Z,4808.00
2023-05-12T09:56:13.326Z,4820.00
2023-05-12T09:57:13.342Z,4840.00
2023-05-12T09:58:13.349Z,4832.00
2023-05-12T09:59:13.283Z,4844.00
2023-05-12T10:00:29.751Z,4852.00
2023-05-12T10:01:22.752Z,4864.00
2023-05-12T10:02:14.319Z,4884.00
2023-05-12T10:03:13.311Z,4904.00
2023-05-12T10:04:13.250Z,4924.00
2023-05-12T10:05:13.313Z,4948.00
2023-05-12T10:06:13.248Z,4952.00
2023-05-12T10:07:13.221Z,4980.00
2023-05-12T10:08:13.163Z,4972.00
2023-05-12T10:09:13.159Z,4976.00
2023-05-12T10:10:13.163Z,5000.00
2023-05-12T10:11:13.118Z,5008.00
2023-05-12T10:12:13.108Z,5036.00
2023-05-12T10:13:13.112Z,5052.00
2023-05-12T10:14:13.100Z,5068.00
2023-05-12T10:15:13.077Z,5088.00
2023-05-12T10:16:13.168Z,5096.00
2023-05-12T10:17:13.124Z,5108.00
2023-05-12T10:18:13.148Z,5092.00
2023-05-12T10:19:13.070Z,5104.00
2023-05-12T10:20:13.057Z,5120.00
2023-05-12T10:21:13.011Z,5132.00
2023-05-12T10:22:12.991Z,5164.00
2023-05-12T10:23:12.963Z,5220.00
2023-05-12T10:24:13.777Z,5232.00
2023-05-12T10:25:12.974Z,5244.00
2023-05-12T10:26:12.957Z,5264.00
2023-05-12T10:27:12.960Z,5288.00
2023-05-12T10:28:12.912Z,5308.00
2023-05-12T10:29:12.894Z,5352.00
2023-05-12T10:30:12.881Z,5372.00
2023-05-12T10:31:12.876Z,5380.00
2023-05-12T10:32:12.883Z,5368.00
2023-05-12T10:33:12.865Z,5380.00
2023-05-12T10:34:12.856Z,5392.00
2023-05-12T10:35:12.828Z,5408.00
2023-05-12T10:36:12.821Z,5428.00
2023-05-12T10:37:12.787Z,5412.00
2023-05-12T10:38:12.819Z,5424.00
2023-05-12T10:39:12.758Z,5448.00
2023-05-12T10:40:12.767Z,5488.00
2023-05-12T10:41:12.755Z,5520.00
2023-05-12T10:42:12.743Z,5452.00
2023-05-12T10:43:12.712Z,5544.00
2023-05-12T10:44:12.724Z,5548.00
2023-05-12T10:45:12.766Z,5556.00
2023-05-12T10:46:12.742Z,5560.00
2023-05-12T10:47:13.242Z,5576.00
2023-05-12T10:48:12.744Z,5600.00
2023-05-12T10:49:12.653Z,5624.00
2023-05-12T10:50:12.648Z,5624.00
2023-05-12T10:51:12.619Z,5628.00
2023-05-12T10:52:12.609Z,5640.00
2023-05-12T10:53:12.602Z,5652.00
2023-05-12T10:54:12.576Z,5660.00
2023-05-12T10:55:12.582Z,5692.00
2023-05-12T10:56:12.826Z,5712.00
2023-05-12T10:57:15.000Z,5732.00
2023-05-12T10:58:14.164Z,5768.00
2023-05-12T10:59:12.807Z,5792.00
2023-05-12T11:00:13.211Z,5780.00
2023-05-12T11:01:13.094Z,5740.00
2023-05-12T11:02:13.614Z,5728.00
2023-05-12T11:03:13.377Z,5736.00
2023-05-12T11:04:13.060Z,5748.00
2023-05-12T11:05:17.415Z,5744.00
2023-05-12T11:06:13.974Z,5764.00
2023-05-12T11:07:13.590Z,5780.00
2023-05-12T11:08:13.763Z,5792.00
2023-05-12T11:09:13.395Z,5824.00
2023-05-12T11:10:13.464Z,5856.00
2023-05-12T11:11:12.811Z,5872.00
2023-05-12T11:12:12.358Z,5880.00
2023-05-12T11:13:12.325Z,5888.00
2023-05-12T11:14:12.308Z,5888.00
2023-05-12T11:15:12.338Z,5904.00
2023-05-12T11:16:12.317Z,5928.00
2023-05-12T11:17:12.295Z,5948.00
2023-05-12T11:18:12.285Z,6008.00
2023-05-12T11:19:12.296Z,6052.00
2023-05-12T11:20:12.257Z,6096.00
2023-05-12T11:21:12.239Z,6100.00
2023-05-12T11:22:12.223Z,6108.00
2023-05-12T11:23:12.204Z,6104.00
2023-05-12T11:24:12.182Z,6112.00
2023-05-12T11:25:12.349Z,6100.00
2023-05-12T11:26:12.172Z,6104.00
2023-05-12T11:27:12.150Z,6232.00
2023-05-12T11:28:12.153Z,6456.00
2023-05-12T11:29:12.132Z,6432.00
2023-05-12T11:30:12.121Z,6568.00
2023-05-12T11:31:12.096Z,6804.00
2023-05-12T11:32:12.084Z,6996.00
2023-05-12T11:33:12.090Z,6892.00
2023-05-12T11:34:13.630Z,6768.00
2023-05-12T11:35:12.056Z,6660.00
2023-05-12T11:36:12.032Z,6556.00
2023-05-12T11:37:12.022Z,6500.00
2023-05-12T11:38:12.023Z,6500.00
2023-05-12T11:39:12.029Z,6564.00
2023-05-12T11:40:12.004Z,6628.00
2023-05-12T11:41:11.952Z,6640.00
2023-05-12T11:42:13.598Z,6668.00
2023-05-12T11:43:11.996Z,6660.00
2023-05-12T11:44:11.924Z,6608.00
2023-05-12T11:45:11.925Z,6568.00
2023-05-12T11:46:11.924Z,6604.00
2023-05-12T11:47:11.885Z,6676.00
2023-05-12T11:48:12.095Z,6708.00
2023-05-12T11:49:11.875Z,6672.00
2023-05-12T11:50:11.869Z,6664.00
2023-05-12T11:51:11.842Z,6844.00
2023-05-12T11:52:11.831Z,7000.00
2023-05-12T11:53:11.875Z,7032.00
2023-05-12T11:54:11.823Z,6936.00
2023-05-12T11:55:11.794Z,6772.00
2023-05-12T11:56:11.784Z,6716.00
2023-05-12T11:57:11.773Z,6672.00
2023-05-12T11:58:11.759Z,6644.00
2023-05-12T11:59:11.748Z,6644.00
2023-05-12T12:00:11.736Z,4360.00
2023-05-12T12:01:11.759Z,6776.00
2023-05-12T12:02:11.770Z,6776.00
2023-05-12T12:03:11.841Z,7044.00
2023-05-12T12:04:11.772Z,7108.00
2023-05-12T12:05:11.650Z,7164.00
2023-05-12T12:06:11.654Z,7152.00
2023-05-12T12:07:11.664Z,7048.00
2023-05-12T12:08:11.639Z,7008.00
2023-05-12T12:09:11.638Z,7036.00
2023-05-12T12:10:11.696Z,7136.00
2023-05-12T12:11:11.611Z,7244.00
2023-05-12T12:12:11.590Z,7268.00
2023-05-12T12:13:11.573Z,7224.00
2023-05-12T12:14:11.548Z,7228.00
2023-05-12T12:15:11.537Z,7276.00
2023-05-12T12:16:13.485Z,4560.00
2023-05-12T12:17:11.508Z,4500.00
2023-05-12T12:18:11.525Z,5164.00
2023-05-12T12:19:11.510Z,6880.00
2023-05-12T12:20:11.504Z,7880.00
2023-05-12T12:21:11.485Z,7692.00
2023-05-12T12:22:11.458Z,8572.00
2023-05-12T12:23:11.435Z,8712.00
2023-05-12T12:24:11.423Z,8860.00
2023-05-12T12:25:11.404Z,8776.00